createdAt,value
2022-09-09T06:08:18.825Z,15.70
2022-09-09T06:10:45.407Z,15.80
2022-09-09T06:13:12.062Z,15.80
2022-09-09T06:15:38.692Z,15.80
2022-09-09T06:18:05.715Z,15.80
2022-09-09T06:20:32.973Z,15.90
2022-09-09T06:22:59.519Z,16.00
2022-09-09T06:25:26.151Z,16.00
2022-09-09T06:27:52.793Z,16.10
2022-09-09T06:30:19.521Z,16.10
2022-09-09T06:32:46.254Z,16.20
2022-09-09T06:35:14.562Z,16.20
2022-09-09T06:37:45.315Z,16.30
2022-09-09T06:40:12.086Z,16.40
2022-09-09T06:42:39.836Z,16.40
2022-09-09T06:45:08.169Z,16.50
2022-09-09T06:47:35.166Z,16.40
2022-09-09T06:50:01.842Z,16.40
2022-09-09T06:52:29.387Z,16.40
2022-09-09T06:54:55.940Z,16.40
2022-09-09T06:57:38.396Z,16.40
2022-09-09T07:00:05.587Z,16.50
2022-09-09T07:02:32.144Z,16.60
2022-09-09T07:04:59.731Z,16.70
2022-09-09T07:07:26.289Z,16.80
2022-09-09T07:09:52.858Z,16.90
2022-09-09T07:12:19.435Z,17.00
2022-09-09T07:14:46.742Z,17.10
2022-09-09T07:17:13.283Z,17.20
2022-09-09T07:19:39.842Z,17.30
2022-09-09T07:22:07.219Z,17.40
2022-09-09T07:24:33.787Z,17.60
2022-09-09T07:27:00.581Z,17.70
2022-09-09T07:29:27.224Z,17.80
2022-09-09T07:31:53.767Z,17.90
2022-09-09T07:34:20.411Z,17.90
2022-09-09T07:36:47.659Z,18.00
2022-09-09T07:39:15.467Z,18.20
2022-09-09T07:41:45.281Z,18.30
2022-09-09T07:44:14.772Z,18.50
2022-09-09T07:46:42.022Z,18.60
2022-09-09T07:49:09.790Z,18.70
2022-09-09T07:51:41.975Z,18.80
2022-09-09T07:54:12.028Z,18.90
2022-09-09T07:56:40.340Z,18.80
2022-09-09T07:59:07.871Z,18.90
2022-09-09T08:01:39.958Z,19.00
2022-09-09T08:04:18.555Z,19.10
2022-09-09T08:06:47.599Z,19.10
2022-09-09T08:09:14.582Z,19.10
2022-09-09T08:11:42.256Z,19.10
2022-09-09T08:14:10.248Z,19.20
2022-09-09T08:16:40.135Z,19.30
2022-09-09T08:19:08.295Z,19.30
2022-09-09T08:21:37.651Z,19.40
2022-09-09T08:24:06.130Z,19.50
2022-09-09T08:26:44.485Z,19.50
2022-09-09T08:29:13.006Z,19.70
2022-09-09T08:31:43.294Z,19.60
2022-09-09T08:34:10.563Z,19.80
2022-09-09T08:36:39.929Z,19.70
2022-09-09T08:39:08.033Z,19.90
2022-09-09T08:42:03.392Z,19.90
2022-09-09T08:44:42.679Z,20.00
2022-09-09T08:47:34.373Z,20.00
2022-09-09T08:50:25.815Z,19.80
2022-09-09T08:53:04.379Z,19.70
2022-09-09T08:55:37.788Z,19.50
2022-09-09T08:58:15.259Z,19.60
2022-09-09T09:01:14.107Z,19.70
2022-09-09T09:04:22.647Z,19.70
2022-09-09T09:07:12.421Z,19.70
2022-09-09T09:09:49.895Z,19.70
2022-09-09T09:12:20.207Z,19.70
2022-09-09T09:14:48.837Z,19.80
2022-09-09T09:17:20.048Z,19.80
2022-09-09T09:19:47.866Z,19.90
2022-09-09T09:22:23.069Z,20.00
2022-09-09T09:24:57.061Z,20.10
2022-09-09T09:27:36.294Z,20.20
2022-09-09T09:30:30.600Z,20.30
2022-09-09T09:33:03.578Z,20.40
2022-09-09T09:35:30.269Z,20.50
2022-09-09T09:41:01.464Z,20.90
2022-09-09T09:43:33.347Z,21.10
2022-09-09T09:46:16.773Z,21.00
2022-09-09T09:48:44.405Z,21.30
2022-09-09T09:51:16.501Z,21.20
2022-09-09T09:53:43.664Z,21.00
2022-09-09T09:56:12.945Z,21.10
2022-09-09T09:58:45.732Z,21.30
2022-09-09T10:01:28.786Z,21.60
2022-09-09T10:04:23.008Z,22.00
2022-09-09T10:06:50.689Z,22.20
2022-09-09T10:09:29.680Z,22.70
2022-09-09T10:12:33.895Z,22.40
2022-09-09T10:15:24.546Z,22.20
2022-09-09T10:18:08.725Z,22.20
2022-09-09T10:20:52.335Z,21.90
2022-09-09T10:23:21.627Z,21.90
2022-09-09T10:25:59.489Z,22.00
2022-09-09T10:29:00.028Z,22.00
2022-09-09T10:31:45.149Z,22.30
2022-09-09T10:34:45.861Z,22.60
2022-09-09T10:37:29.824Z,22.60
2022-09-09T10:40:13.302Z,22.60
2022-09-09T10:42:40.235Z,22.50
2022-09-09T10:45:24.476Z,22.30
2022-09-09T10:47:58.272Z,22.60
2022-09-09T10:51:04.773Z,22.60
2022-09-09T10:53:45.946Z,22.90
2022-09-09T10:56:17.061Z,22.90
2022-09-09T10:58:48.320Z,23.00
2022-09-09T11:01:43.582Z,23.00
2022-09-09T11:04:21.858Z,23.10
2022-09-09T11:06:53.334Z,23.00
2022-09-09T11:09:24.975Z,23.20
2022-09-09T11:11:56.104Z,23.10
2022-09-09T11:14:35.370Z,23.10
2022-09-09T11:17:27.950Z,23.50
2022-09-09T11:19:55.797Z,23.90
2022-09-09T11:22:34.229Z,23.50
2022-09-09T11:25:05.442Z,23.30
2022-09-09T11:28:12.450Z,23.10
2022-09-09T11:31:17.628Z,23.10
2022-09-09T11:34:26.741Z,23.00
2022-09-09T11:37:13.921Z,23.40
2022-09-09T11:40:18.474Z,23.60
2022-09-09T11:42:45.178Z,23.80
2022-09-09T11:45:25.254Z,23.70
2022-09-09T11:47:57.022Z,23.80
2022-09-09T11:50:23.754Z,23.90
2022-09-09T11:52:50.676Z,24.20
2022-09-09T11:55:28.298Z,24.30
2022-09-09T11:58:03.042Z,24.00
2022-09-09T12:00:45.369Z,24.10
2022-09-09T12:03:41.002Z,24.20
2022-09-09T12:06:15.263Z,24.40
2022-09-09T12:08:44.678Z,24.40
2022-09-09T12:11:11.992Z,24.30
2022-09-09T12:13:39.223Z,24.40
2022-09-09T12:16:06.495Z,24.40
2022-09-09T12:18:40.400Z,24.20
2022-09-09T12:21:28.193Z,24.40
2022-09-09T12:23:59.036Z,24.80
2022-09-09T12:26:38.210Z,24.90
2022-09-09T12:29:20.034Z,24.90
2022-09-09T12:31:58.102Z,24.70
2022-09-09T12:34:48.336Z,24.60
2022-09-09T12:37:30.020Z,24.40
2022-09-09T12:39:59.468Z,24.30
2022-09-09T12:42:27.746Z,24.20
2022-09-09T12:44:59.940Z,24.10
2022-09-09T12:47:56.087Z,23.90
2022-09-09T12:50:26.956Z,24.00
2022-09-09T12:52:57.956Z,24.10
2022-09-09T12:55:29.182Z,24.20
2022-09-09T12:57:56.243Z,24.20
2022-09-09T13:00:25.239Z,24.00
2022-09-09T13:02:55.386Z,23.80
2022-09-09T13:05:28.377Z,23.60
2022-09-09T13:08:11.267Z,23.30
2022-09-09T13:10:53.168Z,23.30
2022-09-09T13:13:28.209Z,23.30
2022-09-09T13:15:57.963Z,23.20
2022-09-09T13:18:29.459Z,23.00
2022-09-09T13:20:58.882Z,23.00
2022-09-09T13:23:30.384Z,23.10
2022-09-09T13:26:27.472Z,23.10
2022-09-09T13:29:18.645Z,22.90
2022-09-09T13:31:46.150Z,22.90
2022-09-09T13:34:34.051Z,22.90
2022-09-09T13:37:09.050Z,22.90
2022-09-09T13:39:38.116Z,22.90
2022-09-09T13:42:05.470Z,23.00
2022-09-09T13:44:37.848Z,23.10
2022-09-09T13:47:10.569Z,23.10
2022-09-09T13:49:37.561Z,23.30
2022-09-09T13:52:16.346Z,23.50
2022-09-09T13:54:43.556Z,23.80
2022-09-09T13:57:23.731Z,24.10
2022-09-09T14:00:06.558Z,24.20
2022-09-09T14:02:34.615Z,23.80
2022-09-09T14:05:01.271Z,23.70
2022-09-09T14:07:28.234Z,24.10
2022-09-09T14:09:54.779Z,24.20
2022-09-09T14:12:21.335Z,24.30
2022-09-09T14:14:47.943Z,24.50
2022-09-09T14:17:15.397Z,24.20
2022-09-09T14:19:41.959Z,24.10
2022-09-09T14:22:08.697Z,24.40
2022-09-09T14:24:35.428Z,24.50
2022-09-09T14:27:02.079Z,24.40
2022-09-09T14:29:28.632Z,24.40
2022-09-09T14:31:55.190Z,24.20
2022-09-09T14:34:21.792Z,24.10
2022-09-09T14:36:48.355Z,23.90
2022-09-09T14:39:14.907Z,23.70
2022-09-09T14:41:41.454Z,23.90
2022-09-09T14:44:09.475Z,24.10
2022-09-09T14:46:36.026Z,24.00
2022-09-09T14:49:02.661Z,23.80
2022-09-09T14:51:29.286Z,23.70
2022-09-09T14:53:58.298Z,23.50
2022-09-09T14:56:28.006Z,23.30
2022-09-09T14:58:58.717Z,23.20
2022-09-09T15:01:29.300Z,23.10
2022-09-09T15:03:58.953Z,23.10
2022-09-09T15:06:26.908Z,23.10
2022-09-09T15:08:54.342Z,23.50
2022-09-09T15:11:21.757Z,23.70
2022-09-09T15:13:48.384Z,23.50
2022-09-09T15:16:17.555Z,23.40
2022-09-09T15:18:45.865Z,24.00
2022-09-09T15:21:14.151Z,24.00
2022-09-09T15:23:41.106Z,24.00
2022-09-09T15:26:08.029Z,23.80
2022-09-09T15:28:39.537Z,23.60
2022-09-09T15:31:13.128Z,23.40
2022-09-09T15:33:39.810Z,23.30
2022-09-09T15:36:15.635Z,23.50
2022-09-09T15:38:42.375Z,23.60
2022-09-09T15:41:08.909Z,23.80
2022-09-09T15:43:35.621Z,23.80
2022-09-09T15:46:18.553Z,23.90
2022-09-09T15:48:47.365Z,23.50
2022-09-09T15:51:38.052Z,23.40
2022-09-09T15:54:02.426Z,23.20
2022-09-09T15:56:36.541Z,23.10
2022-09-09T15:59:03.987Z,23.10
2022-09-09T16:01:32.182Z,23.10
2022-09-09T16:04:00.874Z,23.10
2022-09-09T16:06:29.702Z,23.00
2022-09-09T16:08:58.507Z,22.90
2022-09-09T16:11:27.842Z,22.80
2022-09-09T16:13:56.439Z,22.60
2022-09-09T16:16:25.252Z,22.50
2022-09-09T16:18:54.359Z,22.50
2022-09-09T16:21:32.619Z,22.50
2022-09-09T16:24:02.078Z,22.60
2022-09-09T16:26:31.825Z,22.50
2022-09-09T16:28:59.824Z,22.40
2022-09-09T16:31:28.151Z,22.40
2022-09-09T16:33:55.055Z,22.30
2022-09-09T16:36:24.782Z,22.20
2022-09-09T16:38:56.066Z,22.20
2022-09-09T16:41:23.028Z,22.10
2022-09-09T16:43:57.159Z,22.10
2022-09-09T16:46:25.387Z,22.10
2022-09-09T16:48:52.884Z,22.10
2022-09-09T16:51:25.409Z,22.00
2022-09-09T16:53:53.353Z,21.90
2022-09-09T16:56:26.679Z,21.90
2022-09-09T16:58:58.958Z,21.90
2022-09-09T17:01:27.091Z,21.80
2022-09-09T17:04:01.101Z,21.80
2022-09-09T17:06:29.939Z,21.70
2022-09-09T17:08:58.695Z,21.60
2022-09-09T17:11:25.647Z,21.60
2022-09-09T17:13:53.098Z,21.50
2022-09-09T17:16:22.791Z,21.40
2022-09-09T17:18:51.446Z,21.40
2022-09-09T17:21:21.076Z,21.30
2022-09-09T17:23:48.483Z,21.30
2022-09-09T17:26:18.481Z,21.30
2022-09-09T17:28:46.536Z,21.20
2022-09-09T17:31:16.619Z,21.10
2022-09-09T17:33:46.956Z,21.00
2022-09-09T17:36:17.604Z,21.00
2022-09-09T17:38:44.379Z,20.80
2022-09-09T17:41:22.429Z,20.80
2022-09-09T17:43:50.503Z,20.70
2022-09-09T17:46:33.455Z,20.70
2022-09-09T17:49:03.221Z,20.60
2022-09-09T17:51:31.492Z,20.50
2022-09-09T17:54:01.215Z,20.50
2022-09-09T17:56:31.463Z,20.40
2022-09-09T17:58:58.959Z,20.40
2022-09-09T18:01:28.850Z,20.30
2022-09-09T18:03:59.089Z,20.20
2022-09-09T18:06:31.258Z,20.10
2022-09-09T18:09:00.277Z,20.00
2022-09-09T18:11:29.702Z,20.00
2022-09-09T18:14:00.495Z,20.00
2022-09-09T18:16:29.486Z,19.90
2022-09-09T18:18:58.417Z,19.80
2022-09-09T18:21:27.592Z,19.70
2022-09-09T18:23:54.332Z,19.70
2022-09-09T18:26:24.399Z,19.60
2022-09-09T18:28:53.531Z,19.60
2022-09-09T18:31:23.492Z,19.50
2022-09-09T18:33:51.582Z,19.50
2022-09-09T18:36:27.412Z,19.40
2022-09-09T18:38:56.726Z,19.40
2022-09-09T18:41:23.244Z,19.30
2022-09-09T18:43:51.986Z,19.30
2022-09-09T18:46:19.978Z,19.20
2022-09-09T18:48:48.128Z,19.20
2022-09-09T18:51:16.538Z,19.10
2022-09-09T18:53:43.265Z,19.10
2022-09-09T18:56:12.725Z,19.10
2022-09-09T18:58:40.297Z,19.00
2022-09-09T19:01:12.397Z,18.90
2022-09-09T19:03:39.790Z,18.90
2022-09-09T19:06:06.539Z,18.80
2022-09-09T19:08:40.481Z,18.80
2022-09-09T19:11:26.607Z,18.70
2022-09-09T19:14:02.450Z,18.60
2022-09-09T19:16:32.352Z,18.60
2022-09-09T19:19:07.869Z,18.50
2022-09-09T19:21:38.024Z,18.50
2022-09-09T19:24:06.686Z,18.40
2022-09-09T19:26:40.731Z,18.40
2022-09-09T19:29:11.727Z,18.30
2022-09-09T19:31:38.985Z,18.30
2022-09-09T19:34:05.709Z,18.20
2022-09-09T19:36:32.643Z,18.20
2022-09-09T19:39:00.317Z,18.20
2022-09-09T19:41:28.336Z,18.20
2022-09-09T19:44:06.064Z,18.20
2022-09-09T19:46:35.754Z,18.10
2022-09-09T19:49:03.791Z,18.10
2022-09-09T19:51:32.046Z,18.10
2022-09-09T19:54:02.961Z,18.10
2022-09-09T19:56:30.723Z,18.10
2022-09-09T19:58:57.679Z,18.00
2022-09-09T20:01:30.842Z,18.00
2022-09-09T20:03:59.670Z,17.90
2022-09-09T20:06:29.105Z,17.90
2022-09-09T20:08:57.950Z,17.80
2022-09-09T20:11:25.625Z,17.80
2022-09-09T20:13:52.583Z,17.80
2022-09-09T20:16:21.861Z,17.80
2022-09-09T20:18:53.868Z,17.70
2022-09-09T20:21:46.507Z,17.70
2022-09-09T20:24:15.915Z,17.70
2022-09-09T20:26:42.468Z,17.70
2022-09-09T20:29:16.005Z,17.70
2022-09-09T20:31:43.520Z,17.60
2022-09-09T20:34:13.235Z,17.60
2022-09-09T20:36:41.228Z,17.60
2022-09-09T20:39:15.036Z,17.60
2022-09-09T20:41:44.134Z,17.50
2022-09-09T20:44:14.555Z,17.50
2022-09-09T20:46:43.968Z,17.50
2022-09-09T20:49:11.669Z,17.40
2022-09-09T20:51:38.611Z,17.40
2022-09-09T20:54:09.608Z,17.30
2022-09-09T20:56:40.044Z,17.30
2022-09-09T20:59:10.274Z,17.30
2022-09-09T21:01:38.967Z,17.30
2022-09-09T21:04:06.427Z,17.30
2022-09-09T21:06:32.981Z,17.30
2022-09-09T21:08:59.760Z,17.20
2022-09-09T21:11:26.527Z,17.20
2022-09-09T21:13:53.139Z,17.20
2022-09-09T21:16:21.082Z,17.20
2022-09-09T21:18:49.005Z,17.20
2022-09-09T21:21:16.183Z,17.20
2022-09-09T21:23:42.794Z,17.10
2022-09-09T21:26:09.843Z,17.10
2022-09-09T21:28:37.357Z,17.10
2022-09-09T21:31:05.700Z,17.00
2022-09-09T21:33:34.264Z,17.00
2022-09-09T21:36:06.085Z,17.00
2022-09-09T21:38:33.486Z,17.00
2022-09-09T21:41:05.079Z,17.00
2022-09-09T21:43:32.393Z,17.00
2022-09-09T21:45:59.437Z,17.00
2022-09-09T21:48:26.281Z,17.00
2022-09-09T21:50:54.093Z,17.00
2022-09-09T21:53:20.950Z,16.90
2022-09-09T21:55:48.630Z,16.90
2022-09-09T21:58:16.112Z,16.90
2022-09-09T22:00:45.589Z,16.90
2022-09-09T22:03:14.271Z,16.90
2022-09-09T22:05:42.652Z,16.90
2022-09-09T22:08:10.659Z,16.80
2022-09-09T22:10:39.880Z,16.80
2022-09-09T22:13:06.745Z,16.80
2022-09-09T22:15:33.961Z,16.80
2022-09-09T22:18:03.144Z,16.80
2022-09-09T22:20:39.606Z,16.80
2022-09-09T22:23:06.155Z,16.70
2022-09-09T22:25:35.160Z,16.70
2022-09-09T22:28:07.031Z,16.70
2022-09-09T22:30:34.023Z,16.70
